Time;durP1;ratioP1;P1;durP2;ratioP2;P2;SDS_P1;SDS_P2;PMS_P1;PMS_P2;Temp;Humidity;BMP_temperature;BMP_pressure;BME280_temperature;BME280_humidity;BME280_pressure;Samples;Min_cycle;Max_cycle;Signal;HPM_P1;HPM_P2
2024/04/01 00:02:03;;;;;;;20.90;4.88;;;25.50;46.60;;;;;;6129404;28;80829;-54
2024/04/01 00:05:03;;;;;;;13.73;4.40;;;25.50;46.60;;;;;;6131342;28;81037;-54
2024/04/01 00:08:04;;;;;;;19.63;5.60;;;25.40;46.60;;;;;;6129795;28;80483;-54
2024/04/01 00:11:04;;;;;;;15.98;4.53;;;25.50;46.70;;;;;;6129042;28;80727;-56
2024/04/01 00:14:05;;;;;;;18.42;4.60;;;25.50;46.60;;;;;;6129543;28;80260;-55
2024/04/01 00:17:05;;;;;;;16.73;4.38;;;25.50;46.50;;;;;;6129715;28;80592;-56
2024/04/01 00:20:06;;;;;;;13.98;3.55;;;25.50;46.60;;;;;;6130508;28;80446;-57
2024/04/01 00:23:06;;;;;;;18.98;5.05;;;25.40;46.50;;;;;;6130465;28;81057;-56
2024/04/01 00:26:07;;;;;;;18.40;4.82;;;25.40;46.50;;;;;;6129783;28;81100;-56
2024/04/01 00:29:07;;;;;;;18.15;5.07;;;25.50;46.60;;;;;;6130846;28;80437;-55
2024/04/01 00:32:08;;;;;;;13.77;4.15;;;25.40;46.30;;;;;;6130404;28;80653;-56
2024/04/01 00:35:09;;;;;;;21.30;4.18;;;25.50;46.50;;;;;;6129425;28;80729;-56
2024/04/01 00:38:10;;;;;;;12.05;3.95;;;25.50;46.50;;;;;;6129659;28;81213;-58
2024/04/01 00:41:10;;;;;;;16.00;3.90;;;25.50;46.60;;;;;;6132290;28;80747;-59
2024/04/01 00:44:11;;;;;;;16.98;3.33;;;25.50;46.50;;;;;;6129571;28;80612;-60
2024/04/01 00:47:11;;;;;;;16.20;4.18;;;25.50;46.50;;;;;;6129476;28;81573;-59
2024/04/01 00:50:12;;;;;;;16.33;3.97;;;25.50;46.60;;;;;;6129038;28;81041;-59
2024/04/01 00:53:12;;;;;;;16.58;3.80;;;25.50;46.60;;;;;;6127625;28;80395;-60
2024/04/01 00:56:13;;;;;;;12.50;3.55;;;25.50;46.50;;;;;;6136735;28;85809;-57
2024/04/01 00:59:13;;;;;;;17.63;4.07;;;25.50;46.40;;;;;;6134114;28;82105;-57
2024/04/01 01:02:14;;;;;;;20.23;4.45;;;25.50;46.40;;;;;;6128540;28;80446;-59
2024/04/01 01:05:15;;;;;;;21.48;4.55;;;25.50;46.50;;;;;;6130038;28;83775;-55
2024/04/01 01:08:16;;;;;;;12.13;3.60;;;25.50;46.40;;;;;;6129909;28;80780;-57
2024/04/01 01:11:17;;;;;;;14.25;3.78;;;25.50;46.50;;;;;;6141037;28;80548;-58
2024/04/01 01:14:17;;;;;;;15.50;4.10;;;25.50;46.40;;;;;;6143784;28;82161;-52
2024/04/01 01:17:18;;;;;;;16.60;4.15;;;25.50;46.40;;;;;;6135281;28;81006;-49
2024/04/01 01:20:18;;;;;;;12.75;3.80;;;25.40;46.40;;;;;;6128852;28;80818;-55
2024/04/01 01:23:19;;;;;;;15.73;4.13;;;25.40;46.40;;;;;;6129185;28;80625;-56
2024/04/01 01:26:19;;;;;;;15.00;4.13;;;25.40;46.50;;;;;;6129425;28;80981;-56
2024/04/01 01:29:21;;;;;;;9.50;3.58;;;25.40;46.50;;;;;;6142292;28;81636;-52
2024/04/01 01:32:21;;;;;;;14.70;4.18;;;25.50;46.70;;;;;;6140100;28;80499;-54
2024/04/01 01:35:22;;;;;;;13.90;4.30;;;25.40;46.70;;;;;;6128562;28;82847;-56
2024/04/01 01:38:22;;;;;;;10.90;3.75;;;25.40;46.60;;;;;;6128524;28;80557;-57
2024/04/01 01:41:23;;;;;;;15.77;4.38;;;25.40;46.60;;;;;;6128539;28;83458;-55
2024/04/01 01:44:23;;;;;;;12.13;3.25;;;25.40;46.60;;;;;;6128469;28;80498;-55
2024/04/01 01:47:24;;;;;;;14.07;4.30;;;25.40;46.60;;;;;;6128437;28;80258;-56
2024/04/01 01:50:24;;;;;;;12.77;3.97;;;25.40;46.70;;;;;;6127818;28;80525;-50
2024/04/01 01:53:25;;;;;;;18.35;4.38;;;25.40;46.50;;;;;;6130188;28;80284;-51
2024/04/01 01:56:25;;;;;;;17.73;3.28;;;25.40;46.50;;;;;;6139640;28;81001;-53
2024/04/01 01:59:26;;;;;;;11.02;4.10;;;25.40;46.60;;;;;;6127703;28;83371;-52
2024/04/01 02:02:26;;;;;;;11.27;4.18;;;25.40;46.60;;;;;;6128088;28;81110;-54
2024/04/01 02:05:27;;;;;;;16.10;3.85;;;25.40;46.60;;;;;;6135098;28;83575;-51
2024/04/01 02:08:28;;;;;;;16.08;3.80;;;25.40;46.70;;;;;;6132654;28;80119;-52
2024/04/01 02:11:28;;;;;;;15.20;3.15;;;25.50;46.70;;;;;;6133895;28;81448;-53
2024/04/01 02:14:29;;;;;;;10.80;3.50;;;25.40;46.60;;;;;;6127456;28;80552;-48
2024/04/01 02:17:29;;;;;;;14.77;3.53;;;25.50;46.70;;;;;;6128473;28;80653;-48
2024/04/01 02:20:30;;;;;;;8.75;3.38;;;25.50;46.70;;;;;;6128400;28;80943;-50
2024/04/01 02:23:33;;;;;;;10.50;3.45;;;25.50;46.70;;;;;;6128018;28;80536;-53
2024/04/01 02:26:34;;;;;;;16.02;3.67;;;25.50;46.60;;;;;;6128116;28;81565;-53
2024/04/01 02:29:34;;;;;;;13.57;3.58;;;25.50;46.70;;;;;;6127758;28;80495;-54
2024/04/01 02:32:35;;;;;;;22.63;3.88;;;25.40;46.50;;;;;;6138077;28;81595;-53
2024/04/01 02:35:36;;;;;;;10.82;3.75;;;25.40;46.50;;;;;;6128053;28;81173;-53
2024/04/01 02:38:36;;;;;;;9.82;3.17;;;25.50;46.50;;;;;;6127570;28;80588;-52
2024/04/01 02:41:37;;;;;;;17.17;4.72;;;25.40;46.40;;;;;;6128797;28;81083;-52
2024/04/01 02:44:37;;;;;;;15.43;3.92;;;25.50;46.40;;;;;;6128269;28;82271;-55
2024/04/01 02:47:38;;;;;;;10.55;3.33;;;25.40;46.30;;;;;;6127967;28;80658;-54
2024/04/01 02:50:38;;;;;;;11.68;4.03;;;25.50;46.40;;;;;;6127096;28;81082;-51
2024/04/01 02:53:39;;;;;;;8.50;3.17;;;25.40;46.30;;;;;;6127656;28;80791;-53
2024/04/01 02:56:39;;;;;;;17.30;4.55;;;25.40;46.30;;;;;;6130084;28;80330;-52
2024/04/01 02:59:40;;;;;;;12.35;3.25;;;25.40;46.50;;;;;;6136828;28;81031;-55
2024/04/01 03:02:40;;;;;;;13.85;3.60;;;25.40;46.40;;;;;;6139072;28;80672;-58
2024/04/01 03:05:41;;;;;;;13.45;3.65;;;25.40;46.40;;;;;;6139286;28;80737;-58
2024/04/01 03:08:41;;;;;;;17.10;3.95;;;25.40;46.40;;;;;;6141876;28;80893;-56
2024/04/01 03:11:42;;;;;;;14.77;3.45;;;25.40;46.40;;;;;;6127692;28;81380;-56
2024/04/01 03:14:42;;;;;;;14.70;3.10;;;25.50;46.50;;;;;;6133358;28;80455;-57
2024/04/01 03:17:43;;;;;;;12.70;3.00;;;25.40;46.40;;;;;;6141019;28;80910;-58
2024/04/01 03:20:44;;;;;;;9.15;2.92;;;25.40;46.50;;;;;;6131926;28;80235;-58
2024/04/01 03:23:44;;;;;;;13.57;3.83;;;25.40;46.40;;;;;;6133066;28;80366;-59
2024/04/01 03:26:45;;;;;;;9.57;3.25;;;25.40;46.40;;;;;;6131212;28;81075;-59
2024/04/01 03:29:45;;;;;;;11.02;3.55;;;25.40;46.40;;;;;;6131162;28;80443;-59
2024/04/01 03:32:46;;;;;;;7.80;3.08;;;25.40;46.40;;;;;;6148160;28;81476;-58
2024/04/01 03:35:46;;;;;;;12.23;3.90;;;25.40;46.40;;;;;;6136297;28;80423;-58
2024/04/01 03:38:47;;;;;;;10.80;3.35;;;25.50;46.50;;;;;;6143498;28;80605;-58
2024/04/01 03:41:47;;;;;;;12.00;3.80;;;25.50;46.50;;;;;;6130688;28;82354;-53
2024/04/01 03:44:48;;;;;;;12.18;3.92;;;25.40;46.40;;;;;;6132148;28;80665;-49
2024/04/01 03:47:48;;;;;;;14.68;3.40;;;25.50;46.50;;;;;;6139133;28;80278;-50
2024/04/01 03:50:50;;;;;;;12.45;3.10;;;25.50;46.50;;;;;;6132754;28;80903;-53
2024/04/01 03:53:50;;;;;;;17.60;4.63;;;25.50;46.50;;;;;;6130659;28;81182;-51
2024/04/01 03:56:51;;;;;;;11.23;3.72;;;25.50;46.40;;;;;;6130246;28;80987;-55
2024/04/01 03:59:51;;;;;;;14.07;3.40;;;25.40;46.40;;;;;;6130652;28;80943;-55
2024/04/01 04:02:53;;;;;;;10.07;3.17;;;25.50;46.60;;;;;;6132467;28;80461;-51
2024/04/01 04:05:53;;;;;;;11.93;3.28;;;25.50;46.70;;;;;;6141823;28;80105;-53
2024/04/01 04:08:54;;;;;;;14.57;3.85;;;25.40;46.60;;;;;;6132314;28;80407;-55
2024/04/01 04:11:54;;;;;;;14.05;3.85;;;25.50;46.60;;;;;;6143475;28;80458;-55
2024/04/01 04:14:55;;;;;;;14.77;3.90;;;25.50;46.70;;;;;;6142350;28;80766;-57
2024/04/01 04:17:55;;;;;;;12.40;3.78;;;25.40;46.60;;;;;;6140651;28;80401;-56
2024/04/01 04:20:56;;;;;;;14.95;4.22;;;25.40;46.50;;;;;;6143854;28;80503;-58
2024/04/01 04:23:57;;;;;;;13.40;3.50;;;25.40;46.60;;;;;;6130298;28;81796;-56
2024/04/01 04:26:57;;;;;;;13.63;4.40;;;25.40;46.50;;;;;;6131015;28;80380;-57
2024/04/01 04:29:58;;;;;;;13.30;4.35;;;25.40;46.50;;;;;;6130165;28;80504;-55
2024/04/01 04:32:58;;;;;;;11.77;3.60;;;25.40;46.40;;;;;;6140127;28;80997;-55
2024/04/01 04:35:59;;;;;;;9.88;3.33;;;25.40;46.30;;;;;;6129904;28;80884;-54
2024/04/01 04:38:59;;;;;;;14.18;3.95;;;25.40;46.30;;;;;;6129351;28;80817;-54
2024/04/01 04:42:00;;;;;;;11.05;3.25;;;25.40;46.30;;;;;;6129938;28;80926;-57
2024/04/01 04:45:00;;;;;;;14.43;4.28;;;25.40;47.00;;;;;;6153376;28;83558;-59
2024/04/01 04:48:01;;;;;;;14.02;3.88;;;25.40;46.20;;;;;;6155540;28;80433;-53
2024/04/01 04:51:01;;;;;;;15.77;4.47;;;25.40;46.10;;;;;;6154472;28;81259;-56
2024/04/01 04:54:02;;;;;;;17.02;4.35;;;25.40;46.30;;;;;;6154052;28;81811;-57
2024/04/01 04:57:03;;;;;;;14.77;4.03;;;25.40;46.00;;;;;;6160637;28;80688;-58
2024/04/01 05:00:22;;;;;;;13.27;4.15;;;25.40;46.20;;;;;;6162542;28;80440;-56
2024/04/01 05:03:22;;;;;;;16.55;3.72;;;25.40;46.20;;;;;;6160436;28;80597;-57
2024/04/01 05:06:23;;;;;;;24.85;5.43;;;25.40;46.10;;;;;;6176738;28;81510;-54
2024/04/01 05:09:23;;;;;;;15.90;4.03;;;25.40;46.10;;;;;;6163430;28;81028;-56
2024/04/01 05:12:26;;;;;;;12.48;4.97;;;25.40;46.00;;;;;;6151794;28;81650;-63
2024/04/01 05:15:27;;;;;;;13.18;4.05;;;25.40;46.00;;;;;;6145994;28;80745;-65
2024/04/01 05:18:27;;;;;;;13.70;4.63;;;25.40;46.10;;;;;;6159636;28;80773;-64
2024/04/01 05:21:28;;;;;;;16.88;4.05;;;25.40;46.00;;;;;;6156662;28;80396;-65
2024/04/01 05:24:28;;;;;;;16.92;4.25;;;25.50;46.10;;;;;;6156248;28;81090;-63
2024/04/01 05:27:29;;;;;;;17.88;4.75;;;25.40;46.20;;;;;;6162206;28;84693;-64
2024/04/01 05:30:30;;;;;;;22.27;3.92;;;25.50;46.50;;;;;;6164266;28;80526;-64
2024/04/01 05:33:34;;;;;;;15.75;3.45;;;25.50;46.40;;;;;;6164650;28;80716;-64
2024/04/01 05:36:34;;;;;;;11.05;3.65;;;25.50;46.50;;;;;;6164975;28;82872;-63
2024/04/01 05:39:35;;;;;;;21.63;4.80;;;25.50;46.50;;;;;;6167667;28;80877;-64
2024/04/01 05:42:35;;;;;;;14.50;4.13;;;25.50;46.50;;;;;;6158889;28;80746;-64
2024/04/01 05:45:36;;;;;;;23.02;5.03;;;25.50;46.60;;;;;;6160720;28;80766;-64
2024/04/01 05:48:36;;;;;;;19.42;5.10;;;25.50;46.70;;;;;;6154330;28;81620;-49
2024/04/01 05:51:37;;;;;;;23.63;6.28;;;25.50;47.00;;;;;;6150749;28;80524;-49
2024/04/01 05:54:37;;;;;;;18.67;4.78;;;25.50;47.10;;;;;;6153405;28;81235;-50
2024/04/01 05:57:38;;;;;;;18.10;4.50;;;25.60;47.20;;;;;;6156150;28;81940;-52
2024/04/01 06:00:39;;;;;;;25.17;5.63;;;25.60;47.40;;;;;;6154556;28;80599;-48
2024/04/01 06:03:39;;;;;;;29.63;5.97;;;25.60;47.50;;;;;;6160487;28;80818;-51
2024/04/01 06:06:41;;;;;;;28.48;6.35;;;25.60;47.50;;;;;;6156757;28;81316;-52
2024/04/01 06:09:41;;;;;;;26.45;5.75;;;25.70;47.20;;;;;;6151399;28;80627;-53
2024/04/01 06:12:42;;;;;;;24.48;5.38;;;25.60;47.20;;;;;;6151933;28;80605;-53
2024/04/01 06:15:42;;;;;;;21.70;5.53;;;25.60;47.00;;;;;;6163598;28;80471;-51
2024/04/01 06:18:43;;;;;;;25.70;5.78;;;25.60;47.10;;;;;;6155419;28;80898;-50
2024/04/01 06:21:43;;;;;;;30.73;5.95;;;25.60;47.20;;;;;;6153670;28;81335;-51
2024/04/01 06:24:46;;;;;;;22.13;6.18;;;25.70;47.60;;;;;;6155568;28;80589;-49
2024/04/01 06:27:47;;;;;;;28.83;6.40;;;25.70;47.80;;;;;;6159250;28;87034;-49
2024/04/01 06:30:48;;;;;;;33.03;8.80;;;25.70;47.90;;;;;;6160306;28;80848;-51
2024/04/01 06:33:48;;;;;;;41.15;8.43;;;25.50;46.90;;;;;;6161302;28;80720;-52
2024/04/01 06:36:49;;;;;;;50.90;11.70;;;25.30;46.60;;;;;;6151947;28;80980;-46
2024/04/01 06:39:49;;;;;;;46.97;10.88;;;25.30;46.80;;;;;;6149230;28;83618;-49
2024/04/01 06:42:50;;;;;;;73.38;13.25;;;25.30;46.80;;;;;;6159664;28;83084;-51
2024/04/01 06:45:50;;;;;;;68.63;13.02;;;25.20;46.10;;;;;;6148010;28;83204;-48
2024/04/01 06:48:51;;;;;;;64.40;11.25;;;25.20;44.90;;;;;;6150242;28;84636;-48
2024/04/01 06:51:51;;;;;;;64.32;12.80;;;24.90;45.00;;;;;;6153522;28;84260;-53
2024/04/01 06:54:52;;;;;;;78.07;13.57;;;24.70;44.90;;;;;;6157787;28;83524;-46
2024/04/01 06:57:53;;;;;;;63.83;12.63;;;24.70;44.90;;;;;;6153529;28;87887;-51
2024/04/01 07:00:53;;;;;;;68.88;13.82;;;24.60;44.60;;;;;;6149872;28;85032;-51
2024/04/01 07:03:54;;;;;;;73.50;12.38;;;24.60;44.50;;;;;;6156474;28;83307;-47
2024/04/01 07:06:54;;;;;;;69.65;13.10;;;24.50;44.20;;;;;;6158106;28;87786;-52
2024/04/01 07:09:55;;;;;;;65.70;12.13;;;24.50;44.50;;;;;;6146662;28;90078;-52
2024/04/01 07:12:56;;;;;;;55.72;12.00;;;24.50;44.40;;;;;;6153475;28;83591;-52
2024/04/01 07:15:56;;;;;;;69.82;12.60;;;24.60;44.60;;;;;;6145133;28;83178;-51
2024/04/01 07:18:57;;;;;;;69.20;11.57;;;24.50;43.70;;;;;;6148408;28;83278;-48
2024/04/01 07:21:58;;;;;;;65.38;12.52;;;24.40;44.10;;;;;;6159605;28;83858;-63
2024/04/01 07:24:58;;;;;;;63.47;13.35;;;24.40;44.10;;;;;;6131496;28;85709;-63
2024/04/01 07:27:59;;;;;;;70.30;13.13;;;24.40;44.10;;;;;;6152729;28;83914;-63
2024/04/01 07:30:59;;;;;;;71.03;12.65;;;24.50;44.10;;;;;;6153267;28;83840;-62
2024/04/01 07:34:00;;;;;;;54.15;11.48;;;24.60;44.30;;;;;;6149219;28;88932;-60
2024/04/01 07:37:00;;;;;;;70.22;13.52;;;24.60;44.20;;;;;;6152513;28;84271;-62
2024/04/01 07:40:01;;;;;;;77.10;12.65;;;24.60;43.80;;;;;;6150389;28;83376;-53
2024/04/01 07:43:02;;;;;;;77.00;13.50;;;24.60;43.60;;;;;;6151244;28;84638;-52
2024/04/01 07:46:02;;;;;;;75.47;12.50;;;24.50;43.40;;;;;;6149826;28;84153;-50
2024/04/01 07:49:03;;;;;;;73.43;13.23;;;24.50;43.40;;;;;;6151877;28;84206;-49
2024/04/01 07:52:04;;;;;;;63.70;11.50;;;24.60;44.10;;;;;;6139460;28;84295;-54
2024/04/01 07:55:05;;;;;;;57.38;11.88;;;24.70;43.40;;;;;;6134110;28;84197;-49
2024/04/01 07:58:06;;;;;;;75.80;13.07;;;24.70;43.50;;;;;;6152399;28;84041;-47
2024/04/01 08:01:08;;;;;;;70.28;12.10;;;24.80;43.60;;;;;;6150071;28;84432;-52
2024/04/01 08:04:08;;;;;;;87.18;12.90;;;24.90;43.70;;;;;;6150216;28;85008;-52
2024/04/01 08:07:09;;;;;;;71.07;14.25;;;25.10;43.30;;;;;;6155858;28;87316;-49
2024/04/01 08:10:09;;;;;;;65.55;11.65;;;25.00;42.90;;;;;;6152301;28;85336;-49
2024/04/01 08:13:10;;;;;;;90.38;13.85;;;25.10;43.10;;;;;;6151943;28;84235;-54
2024/04/01 08:16:10;;;;;;;75.60;13.68;;;25.10;42.90;;;;;;6146330;28;84611;-49
2024/04/01 08:19:11;;;;;;;74.55;14.55;;;25.20;42.90;;;;;;6154847;28;84704;-53
2024/04/01 08:22:11;;;;;;;80.03;13.75;;;25.20;42.40;;;;;;6154214;28;84661;-55
2024/04/01 08:25:13;;;;;;;68.18;13.98;;;25.20;42.40;;;;;;6152667;28;86410;-51
2024/04/01 08:28:14;;;;;;;65.97;11.95;;;25.30;42.30;;;;;;6155621;28;84586;-49
2024/04/01 08:31:14;;;;;;;83.82;13.57;;;25.30;41.80;;;;;;6149280;28;84348;-51
2024/04/01 08:34:15;;;;;;;99.47;14.95;;;25.40;41.90;;;;;;6142412;28;84190;-55
2024/04/01 08:37:15;;;;;;;96.10;14.27;;;25.40;41.40;;;;;;6151499;28;84063;-55
2024/04/01 08:40:16;;;;;;;74.78;13.68;;;25.50;41.40;;;;;;6152339;28;85082;-53
2024/04/01 08:43:16;;;;;;;94.85;15.95;;;25.50;41.20;;;;;;6154737;28;84146;-53
2024/04/01 08:46:17;;;;;;;79.63;14.43;;;25.40;40.80;;;;;;6144792;28;85251;-57
2024/04/01 08:49:17;;;;;;;91.68;16.58;;;25.30;41.70;;;;;;6161771;28;83618;-53
2024/04/01 08:52:18;;;;;;;88.35;16.10;;;25.20;42.00;;;;;;6154586;28;85830;-54
2024/04/01 08:55:19;;;;;;;100.00;15.10;;;25.10;41.40;;;;;;6154031;28;84366;-45
2024/04/01 08:58:20;;;;;;;104.05;17.05;;;25.10;43.90;;;;;;6159069;28;84133;-54
2024/04/01 09:01:20;;;;;;;95.57;15.45;;;25.10;41.70;;;;;;6147035;28;83637;-54
2024/04/01 09:04:21;;;;;;;93.78;14.30;;;25.00;41.80;;;;;;6150313;28;83012;-48
2024/04/01 09:07:22;;;;;;;85.55;15.25;;;25.00;42.00;;;;;;6162284;28;83460;-49
2024/04/01 09:10:22;;;;;;;83.43;15.20;;;25.00;42.70;;;;;;6149903;28;83377;-61
2024/04/01 09:13:23;;;;;;;83.55;14.88;;;25.00;42.40;;;;;;6149081;28;83851;-59
2024/04/01 09:16:24;;;;;;;92.85;15.00;;;25.00;41.40;;;;;;6149038;28;90928;-63
2024/04/01 09:19:24;;;;;;;74.57;12.88;;;25.00;42.00;;;;;;6168998;28;83404;-64
2024/04/01 09:22:25;;;;;;;90.10;15.35;;;25.00;42.50;;;;;;6175010;28;83601;-63
2024/04/01 09:25:25;;;;;;;95.47;16.63;;;25.00;41.80;;;;;;6177182;28;83186;-60
2024/04/01 09:28:26;;;;;;;76.57;13.85;;;25.20;42.50;;;;;;6172402;28;82858;-46
2024/04/01 09:31:26;;;;;;;88.30;14.23;;;25.20;41.70;;;;;;6171621;28;84830;-51
2024/04/01 09:34:27;;;;;;;79.95;13.95;;;25.20;42.50;;;;;;6162000;28;83729;-51
2024/04/01 09:37:27;;;;;;;75.47;13.45;;;25.30;43.10;;;;;;6147537;28;85345;-52
2024/04/01 09:40:28;;;;;;;77.60;15.07;;;25.40;42.30;;;;;;6154298;28;83694;-50
2024/04/01 09:43:28;;;;;;;67.97;13.18;;;25.40;41.90;;;;;;6160018;28;83166;-53
2024/04/01 09:46:29;;;;;;;80.03;12.80;;;25.40;41.90;;;;;;6152462;28;83650;-51
2024/04/01 09:49:29;;;;;;;72.68;13.00;;;25.40;41.90;;;;;;6148058;28;83948;-53
2024/04/01 09:52:30;;;;;;;88.03;14.15;;;25.50;41.40;;;;;;6166057;28;83131;-50
2024/04/01 09:55:31;;;;;;;92.80;13.90;;;25.40;41.40;;;;;;6152551;28;82887;-55
2024/04/01 09:58:32;;;;;;;72.45;12.90;;;25.40;41.10;;;;;;6148200;28;84976;-55
2024/04/01 10:01:33;;;;;;;71.18;12.32;;;25.40;40.90;;;;;;6148888;28;83360;-51
2024/04/01 10:04:33;;;;;;;82.45;14.02;;;25.50;40.90;;;;;;6148804;28;83658;-54
2024/04/01 10:07:34;;;;;;;70.30;13.05;;;25.50;40.90;;;;;;6149486;28;83002;-47
2024/04/01 10:10:34;;;;;;;74.47;13.13;;;25.50;41.00;;;;;;6148943;28;83890;-49
2024/04/01 10:13:35;;;;;;;76.70;12.60;;;25.50;41.10;;;;;;6149544;28;84857;-54
2024/04/01 10:16:35;;;;;;;70.47;12.80;;;25.40;41.10;;;;;;6148836;28;82864;-56
2024/04/01 10:19:36;;;;;;;59.20;11.00;;;25.50;41.80;;;;;;6149685;28;84052;-55
2024/04/01 10:22:36;;;;;;;84.82;13.57;;;25.50;42.10;;;;;;6149389;28;85164;-55
2024/04/01 10:25:37;;;;;;;65.53;12.02;;;25.50;42.20;;;;;;6149889;28;83511;-58
2024/04/01 10:28:38;;;;;;;66.82;12.10;;;25.50;41.80;;;;;;6161767;28;83372;-51
2024/04/01 10:31:38;;;;;;;68.88;12.35;;;25.50;42.80;;;;;;6156871;28;83395;-58
2024/04/01 10:34:39;;;;;;;61.47;13.80;;;25.50;43.90;;;;;;6148677;28;83812;-57
2024/04/01 10:37:40;;;;;;;64.50;13.38;;;25.60;43.20;;;;;;6146417;28;85544;-58
2024/04/01 10:40:41;;;;;;;59.65;10.60;;;25.70;43.20;;;;;;6147361;28;84573;-58
2024/04/01 10:43:41;;;;;;;70.68;12.50;;;25.70;43.50;;;;;;6147906;28;84147;-57
2024/04/01 10:46:42;;;;;;;62.10;12.75;;;25.70;43.70;;;;;;6148209;28;83243;-55
2024/04/01 10:49:42;;;;;;;70.57;11.82;;;25.70;44.00;;;;;;6150312;28;82804;-58
2024/04/01 10:52:43;;;;;;;76.95;13.25;;;25.70;43.60;;;;;;6147307;28;84004;-59
2024/04/01 10:55:44;;;;;;;53.53;12.27;;;25.70;43.00;;;;;;6150766;28;85322;-58
2024/04/01 10:58:44;;;;;;;61.03;11.38;;;25.80;43.90;;;;;;6150168;28;83105;-57
2024/04/01 11:01:45;;;;;;;65.32;11.60;;;25.80;43.60;;;;;;6149403;28;89350;-52
2024/04/01 11:04:46;;;;;;;45.55;11.18;;;25.80;44.10;;;;;;6148436;28;83278;-54
2024/04/01 11:07:46;;;;;;;55.58;11.65;;;25.90;43.90;;;;;;6161634;28;84052;-53
2024/04/01 11:10:47;;;;;;;68.25;13.02;;;25.90;44.00;;;;;;6155819;28;84556;-55
2024/04/01 11:13:47;;;;;;;56.38;12.68;;;25.80;43.10;;;;;;6147672;28;83028;-57
2024/04/01 11:16:48;;;;;;;65.32;12.55;;;25.90;44.70;;;;;;6148422;28;84308;-54
2024/04/01 11:19:48;;;;;;;52.70;10.50;;;25.90;44.30;;;;;;6145697;28;83909;-58
2024/04/01 11:22:49;;;;;;;53.38;10.85;;;25.90;43.90;;;;;;6159393;28;85909;-60
2024/04/01 11:25:49;;;;;;;71.82;12.05;;;25.80;44.30;;;;;;6153054;28;85025;-59
2024/04/01 11:28:50;;;;;;;58.38;11.02;;;25.80;43.10;;;;;;6161336;28;83333;-56
2024/04/01 11:31:50;;;;;;;61.40;10.40;;;25.80;43.70;;;;;;6160575;28;83989;-52
2024/04/01 11:34:51;;;;;;;49.60;9.73;;;25.80;43.70;;;;;;6159202;28;83227;-56
2024/04/01 11:37:51;;;;;;;49.85;10.30;;;25.80;44.00;;;;;;6170628;28;83217;-50
2024/04/01 11:40:52;;;;;;;49.97;10.63;;;25.90;43.00;;;;;;6156904;28;83159;-50
2024/04/01 11:43:52;;;;;;;73.30;12.27;;;25.80;42.10;;;;;;6169170;28;83685;-48
2024/04/01 11:46:53;;;;;;;70.00;12.32;;;25.70;41.30;;;;;;6151499;28;85941;-52
2024/04/01 11:49:54;;;;;;;68.60;10.82;;;25.70;41.80;;;;;;6149569;28;84156;-49
2024/04/01 11:52:54;;;;;;;63.97;11.13;;;25.70;41.50;;;;;;6162998;28;83080;-49
2024/04/01 11:55:56;;;;;;;67.13;11.95;;;25.70;41.40;;;;;;6157719;28;84099;-59
2024/04/01 11:58:56;;;;;;;56.88;10.88;;;25.70;41.10;;;;;;6167861;28;84834;-59
2024/04/01 12:01:57;;;;;;;54.72;11.35;;;25.70;40.90;;;;;;6157032;28;84866;-59
2024/04/01 12:04:57;;;;;;;61.35;10.45;;;25.60;40.80;;;;;;6166913;28;83801;-59
2024/04/01 12:07:58;;;;;;;58.53;11.07;;;25.70;41.20;;;;;;6164024;28;82933;-59
2024/04/01 12:10:58;;;;;;;58.47;9.32;;;25.70;41.50;;;;;;6157922;28;82987;-59
2024/04/01 12:14:01;;;;;;;59.28;10.55;;;25.70;41.60;;;;;;6156810;28;82789;-60
2024/04/01 12:17:01;;;;;;;63.15;10.98;;;25.70;42.00;;;;;;6165413;28;83648;-59
2024/04/01 12:20:05;;;;;;;63.17;11.82;;;25.70;41.00;;;;;;6151401;28;84053;-59
2024/04/01 12:23:06;;;;;;;63.95;10.68;;;25.70;41.20;;;;;;6144229;28;83495;-56
2024/04/01 12:26:06;;;;;;;48.03;11.15;;;25.80;41.30;;;;;;6137899;28;83259;-57
2024/04/01 12:29:07;;;;;;;60.28;10.93;;;25.80;41.70;;;;;;6133034;28;83407;-58
2024/04/01 12:32:08;;;;;;;45.30;8.10;;;25.80;41.90;;;;;;6139900;28;84225;-58
2024/04/01 12:35:08;;;;;;;47.90;10.20;;;25.90;42.80;;;;;;6144646;28;82642;-58
2024/04/01 12:38:09;;;;;;;49.30;9.48;;;25.90;42.80;;;;;;6130680;28;85017;-57
2024/04/01 12:41:10;;;;;;;56.20;10.30;;;25.90;42.70;;;;;;6128702;28;82895;-57
2024/04/01 12:44:10;;;;;;;63.80;10.80;;;25.90;43.00;;;;;;6140824;28;86540;-55
2024/04/01 12:47:13;;;;;;;54.83;10.35;;;25.90;43.50;;;;;;6130667;28;83361;-59
2024/04/01 12:50:15;;;;;;;57.38;9.00;;;25.80;41.20;;;;;;6137210;28;83602;-57
2024/04/01 12:53:15;;;;;;;47.50;9.27;;;25.80;38.80;;;;;;6149036;28;82960;-57
2024/04/01 12:56:16;;;;;;;47.22;9.52;;;25.70;36.90;;;;;;6150293;28;80399;-58
2024/04/01 12:59:16;;;;;;;58.63;10.75;;;25.90;39.30;;;;;;6139554;28;81217;-59
2024/04/01 13:02:17;;;;;;;51.45;9.27;;;25.90;40.30;;;;;;6130007;28;83138;-59
2024/04/01 13:05:18;;;;;;;59.33;10.52;;;25.90;39.90;;;;;;6134611;28;82263;-61
2024/04/01 13:08:18;;;;;;;36.40;8.32;;;26.00;40.40;;;;;;6140624;28;83142;-58
2024/04/01 13:11:19;;;;;;;43.17;8.43;;;26.00;39.70;;;;;;6129078;28;81785;-58
2024/04/01 13:14:19;;;;;;;49.17;8.90;;;26.00;40.30;;;;;;6132085;28;81844;-58
2024/04/01 13:17:20;;;;;;;46.60;10.55;;;26.00;39.90;;;;;;6141999;28;80771;-58
2024/04/01 13:20:20;;;;;;;51.42;9.90;;;26.00;40.20;;;;;;6137526;28;86170;-61
2024/04/01 13:23:24;;;;;;;44.92;8.48;;;26.00;40.80;;;;;;6141139;28;83036;-60
2024/04/01 13:26:25;;;;;;;53.47;10.02;;;26.00;40.90;;;;;;6133413;28;80729;-59
2024/04/01 13:29:25;;;;;;;53.95;9.95;;;26.00;38.50;;;;;;6139819;28;83168;-59
2024/04/01 13:32:26;;;;;;;82.50;11.18;;;25.90;37.80;;;;;;6130019;28;81794;-60
2024/04/01 13:35:26;;;;;;;47.40;9.93;;;26.00;36.70;;;;;;6128334;28;85116;-54
2024/04/01 13:38:27;;;;;;;53.00;9.75;;;26.00;36.40;;;;;;6140253;28;83671;-58
2024/04/01 13:41:27;;;;;;;57.08;8.73;;;26.00;34.80;;;;;;6138905;28;80660;-58
2024/04/01 13:44:28;;;;;;;54.25;9.90;;;26.10;34.50;;;;;;6136715;28;81197;-60
2024/04/01 13:47:29;;;;;;;68.10;11.27;;;26.10;34.80;;;;;;6131087;28;82558;-55
2024/04/01 13:50:29;;;;;;;51.22;10.25;;;26.10;34.20;;;;;;6120120;28;82996;-54
2024/04/01 13:53:30;;;;;;;55.72;9.60;;;26.10;33.90;;;;;;6135886;28;83829;-52
2024/04/01 13:56:30;;;;;;;62.20;11.48;;;26.20;33.60;;;;;;6130602;28;84757;-58
2024/04/01 13:59:31;;;;;;;76.63;13.32;;;26.20;33.80;;;;;;6146231;28;83920;-58
2024/04/01 14:02:31;;;;;;;67.50;11.13;;;26.20;34.00;;;;;;6124183;28;83350;-51
2024/04/01 14:05:32;;;;;;;66.75;12.15;;;26.30;34.30;;;;;;6126202;28;84358;-51
2024/04/01 14:08:33;;;;;;;69.15;13.75;;;26.30;34.60;;;;;;6122019;28;83887;-51
2024/04/01 14:11:33;;;;;;;77.63;12.48;;;26.30;35.10;;;;;;6127036;28;84072;-50
2024/04/01 14:14:34;;;;;;;80.85;11.75;;;26.30;35.30;;;;;;6123868;28;83867;-48
2024/04/01 14:17:34;;;;;;;72.68;14.88;;;26.30;35.30;;;;;;6134063;28;83206;-48
2024/04/01 14:20:36;;;;;;;84.15;12.60;;;26.30;35.30;;;;;;6124021;28;83122;-50
2024/04/01 14:23:37;;;;;;;77.70;14.80;;;26.30;35.20;;;;;;6133712;28;83184;-50
2024/04/01 14:26:38;;;;;;;69.20;14.63;;;26.30;35.40;;;;;;6138980;28;82835;-48
2024/04/01 14:29:38;;;;;;;80.05;13.73;;;26.40;35.50;;;;;;6129136;28;84005;-52
2024/04/01 14:32:39;;;;;;;66.75;13.18;;;26.40;35.60;;;;;;6134083;28;83644;-50
2024/04/01 14:35:39;;;;;;;73.93;12.50;;;26.40;36.00;;;;;;6124846;28;83675;-50
2024/04/01 14:38:40;;;;;;;74.43;14.18;;;26.40;35.90;;;;;;6118516;28;83526;-48
2024/04/01 14:41:40;;;;;;;69.88;13.85;;;26.40;35.50;;;;;;6116292;28;84757;-48
2024/04/01 14:44:41;;;;;;;73.07;13.77;;;26.30;35.30;;;;;;6126726;28;83026;-55
2024/04/01 14:47:41;;;;;;;74.03;13.95;;;26.40;35.50;;;;;;6122838;28;83788;-56
2024/04/01 14:50:42;;;;;;;72.70;13.80;;;26.40;35.60;;;;;;6123938;28;84185;-55
2024/04/01 14:53:42;;;;;;;88.28;14.63;;;26.30;35.40;;;;;;6123490;28;83646;-54
2024/04/01 14:56:43;;;;;;;85.28;16.92;;;26.30;35.40;;;;;;6123269;28;83012;-57
2024/04/01 14:59:43;;;;;;;84.00;14.35;;;26.30;35.20;;;;;;6127215;28;83341;-55
2024/04/01 15:02:44;;;;;;;79.45;13.60;;;26.30;35.40;;;;;;6142107;28;83191;-59
2024/04/01 15:05:44;;;;;;;86.30;15.20;;;26.30;35.40;;;;;;6144532;28;83138;-59
2024/04/01 15:08:45;;;;;;;78.70;13.77;;;26.40;35.60;;;;;;6123739;28;83535;-58
2024/04/01 15:11:45;;;;;;;73.30;13.65;;;26.40;35.70;;;;;;6123575;28;83178;-58
2024/04/01 15:14:46;;;;;;;74.35;13.25;;;26.30;35.60;;;;;;6127489;28;84793;-56
2024/04/01 15:17:46;;;;;;;74.10;14.15;;;26.30;35.90;;;;;;6135466;28;84061;-57
2024/04/01 15:20:47;;;;;;;82.00;14.38;;;26.30;35.70;;;;;;6141367;28;83893;-56
2024/04/01 15:23:48;;;;;;;84.25;14.20;;;26.30;35.60;;;;;;6126809;28;86701;-55